sensor_id;sensor_type;location;lat;lon;timestamp;pressure;altitude;pressure_sealevel;temperature;humidity
10464;BME280;5279;42.048;24.638;2022-10-16T00:01:38;98111.75;;;11.38;100.00
10464;BME280;5279;42.048;24.638;2022-10-16T00:04:05;98127.97;;;11.45;100.00
10464;BME280;5279;42.048;24.638;2022-10-16T00:06:32;98127.38;;;11.41;100.00
10464;BME280;5279;42.048;24.638;2022-10-16T00:08:59;98124.84;;;11.21;100.00
10464;BME280;5279;42.048;24.638;2022-10-16T00:11:28;98131.63;;;11.14;100.00
10464;BME280;5279;42.048;24.638;2022-10-16T00:14:00;98133.16;;;11.07;100.00
10464;BME280;5279;42.048;24.638;2022-10-16T00:16:28;98133.13;;;10.97;100.00
10464;BME280;5279;42.048;24.638;2022-10-16T00:18:55;98141.22;;;10.95;100.00
10464;BME280;5279;42.048;24.638;2022-10-16T00:21:24;98146.25;;;10.98;100.00
10464;BME280;5279;42.048;24.638;2022-10-16T00:23:54;98147.22;;;10.97;100.00
10464;BME280;5279;42.048;24.638;2022-10-16T00:26:22;98141.75;;;10.89;100.00
10464;BME280;5279;42.048;24.638;2022-10-16T00:28:50;98143.69;;;10.87;100.00
10464;BME280;5279;42.048;24.638;2022-10-16T00:31:20;98146.41;;;10.76;100.00
10464;BME280;5279;42.048;24.638;2022-10-16T00:33:49;98148.38;;;10.74;100.00
10464;BME280;5279;42.048;24.638;2022-10-16T00:36:19;98147.22;;;10.67;100.00
10464;BME280;5279;42.048;24.638;2022-10-16T00:38:46;98148.69;;;10.51;100.00
10464;BME280;5279;42.048;24.638;2022-10-16T00:41:16;98153.81;;;10.52;100.00
10464;BME280;5279;42.048;24.638;2022-10-16T00:43:44;98154.06;;;10.39;100.00
10464;BME280;5279;42.048;24.638;2022-10-16T00:46:19;98164.69;;;10.49;100.00
10464;BME280;5279;42.048;24.638;2022-10-16T00:48:51;98167.22;;;10.30;100.00
10464;BME280;5279;42.048;24.638;2022-10-16T00:51:30;98145.81;;;10.22;100.00
10464;BME280;5279;42.048;24.638;2022-10-16T00:54:02;98168.38;;;10.16;100.00
10464;BME280;5279;42.048;24.638;2022-10-16T00:56:30;98167.28;;;10.19;100.00
10464;BME280;5279;42.048;24.638;2022-10-16T00:58:59;98171.38;;;10.12;100.00
10464;BME280;5279;42.048;24.638;2022-10-16T01:01:29;98172.72;;;10.06;100.00
10464;BME280;5279;42.048;24.638;2022-10-16T01:03:58;98173.81;;;10.04;100.00
10464;BME280;5279;42.048;24.638;2022-10-16T01:06:31;98181.66;;;10.05;100.00
10464;BME280;5279;42.048;24.638;2022-10-16T01:09:10;98181.91;;;10.02;100.00
10464;BME280;5279;42.048;24.638;2022-10-16T01:11:45;98188.09;;;10.12;100.00
10464;BME280;5279;42.048;24.638;2022-10-16T01:14:21;98194.03;;;10.05;100.00
10464;BME280;5279;42.048;24.638;2022-10-16T01:16:53;98192.31;;;9.83;100.00
10464;BME280;5279;42.048;24.638;2022-10-16T01:19:50;98195.41;;;9.88;100.00
10464;BME280;5279;42.048;24.638;2022-10-16T01:22:38;98193.59;;;9.88;100.00
10464;BME280;5279;42.048;24.638;2022-10-16T01:25:12;98202.41;;;9.89;100.00
10464;BME280;5279;42.048;24.638;2022-10-16T01:27:45;98178.97;;;9.84;100.00
10464;BME280;5279;42.048;24.638;2022-10-16T01:30:16;98187.53;;;9.77;100.00
10464;BME280;5279;42.048;24.638;2022-10-16T01:32:47;98194.41;;;9.68;100.00
10464;BME280;5279;42.048;24.638;2022-10-16T01:35:21;98208.34;;;9.70;100.00
10464;BME280;5279;42.048;24.638;2022-10-16T01:37:51;98205.69;;;9.70;100.00
10464;BME280;5279;42.048;24.638;2022-10-16T01:40:20;98207.50;;;9.70;100.00
10464;BME280;5279;42.048;24.638;2022-10-16T01:42:55;98210.63;;;9.75;100.00
10464;BME280;5279;42.048;24.638;2022-10-16T01:45:25;98208.59;;;9.67;100.00
10464;BME280;5279;42.048;24.638;2022-10-16T01:47:55;98218.22;;;9.68;100.00
10464;BME280;5279;42.048;24.638;2022-10-16T01:50:23;98214.63;;;9.58;100.00
10464;BME280;5279;42.048;24.638;2022-10-16T01:52:52;98220.91;;;9.57;100.00
10464;BME280;5279;42.048;24.638;2022-10-16T01:55:25;98203.72;;;9.41;100.00
10464;BME280;5279;42.048;24.638;2022-10-16T01:57:57;98221.41;;;9.51;100.00
10464;BME280;5279;42.048;24.638;2022-10-16T02:00:27;98225.84;;;9.40;100.00
10464;BME280;5279;42.048;24.638;2022-10-16T02:02:55;98214.09;;;9.32;100.00
10464;BME280;5279;42.048;24.638;2022-10-16T02:05:27;98210.59;;;9.21;100.00
10464;BME280;5279;42.048;24.638;2022-10-16T02:07:55;98217.81;;;9.19;100.00
10464;BME280;5279;42.048;24.638;2022-10-16T02:10:23;98216.25;;;9.16;100.00
10464;BME280;5279;42.048;24.638;2022-10-16T02:12:55;98219.03;;;9.15;100.00
10464;BME280;5279;42.048;24.638;2022-10-16T02:15:25;98214.94;;;9.11;100.00
10464;BME280;5279;42.048;24.638;2022-10-16T02:17:55;98214.44;;;9.17;100.00
10464;BME280;5279;42.048;24.638;2022-10-16T02:20:25;98235.13;;;9.12;100.00
10464;BME280;5279;42.048;24.638;2022-10-16T02:22:54;98211.94;;;8.93;100.00
10464;BME280;5279;42.048;24.638;2022-10-16T02:25:26;98217.09;;;9.06;100.00
10464;BME280;5279;42.048;24.638;2022-10-16T02:28:02;98219.00;;;9.04;100.00
10464;BME280;5279;42.048;24.638;2022-10-16T02:30:33;98213.97;;;9.01;100.00
10464;BME280;5279;42.048;24.638;2022-10-16T02:33:07;98222.50;;;8.93;100.00
10464;BME280;5279;42.048;24.638;2022-10-16T02:35:36;98235.31;;;8.75;100.00
10464;BME280;5279;42.048;24.638;2022-10-16T02:38:05;98235.44;;;8.85;100.00
10464;BME280;5279;42.048;24.638;2022-10-16T02:40:33;98225.47;;;8.89;100.00
10464;BME280;5279;42.048;24.638;2022-10-16T02:43:03;98226.94;;;8.93;100.00
10464;BME280;5279;42.048;24.638;2022-10-16T02:45:31;98226.94;;;8.93;100.00
10464;BME280;5279;42.048;24.638;2022-10-16T02:47:58;98234.13;;;8.91;100.00
10464;BME280;5279;42.048;24.638;2022-10-16T02:50:25;98223.91;;;8.75;100.00
10464;BME280;5279;42.048;24.638;2022-10-16T02:52:52;98235.44;;;8.74;100.00
10464;BME280;5279;42.048;24.638;2022-10-16T02:55:19;98238.94;;;8.86;100.00
10464;BME280;5279;42.048;24.638;2022-10-16T02:57:46;98242.28;;;8.88;100.00
10464;BME280;5279;42.048;24.638;2022-10-16T03:00:15;98241.19;;;8.79;100.00
10464;BME280;5279;42.048;24.638;2022-10-16T03:02:44;98248.88;;;8.71;100.00
10464;BME280;5279;42.048;24.638;2022-10-16T03:05:10;98249.97;;;8.68;100.00
10464;BME280;5279;42.048;24.638;2022-10-16T03:07:37;98251.41;;;8.72;100.00
10464;BME280;5279;42.048;24.638;2022-10-16T03:10:05;98252.16;;;8.86;100.00
10464;BME280;5279;42.048;24.638;2022-10-16T03:12:33;98256.81;;;8.82;100.00
10464;BME280;5279;42.048;24.638;2022-10-16T03:15:00;98250.59;;;8.83;100.00
10464;BME280;5279;42.048;24.638;2022-10-16T03:17:27;98258.63;;;8.82;100.00
10464;BME280;5279;42.048;24.638;2022-10-16T03:19:55;98257.91;;;8.79;100.00
10464;BME280;5279;42.048;24.638;2022-10-16T03:22:22;98255.03;;;8.71;100.00
10464;BME280;5279;42.048;24.638;2022-10-16T03:24:49;98261.50;;;8.78;100.00
10464;BME280;5279;42.048;24.638;2022-10-16T03:27:15;98256.72;;;8.84;100.00
10464;BME280;5279;42.048;24.638;2022-10-16T03:29:42;98253.00;;;8.86;100.00
10464;BME280;5279;42.048;24.638;2022-10-16T03:32:12;98258.28;;;8.86;100.00
10464;BME280;5279;42.048;24.638;2022-10-16T03:34:39;98261.88;;;8.85;100.00
10464;BME280;5279;42.048;24.638;2022-10-16T03:37:07;98267.38;;;8.82;100.00
10464;BME280;5279;42.048;24.638;2022-10-16T03:39:34;98271.59;;;8.85;100.00
10464;BME280;5279;42.048;24.638;2022-10-16T03:42:01;98267.28;;;8.84;100.00
10464;BME280;5279;42.048;24.638;2022-10-16T03:44:28;98284.09;;;8.83;100.00
10464;BME280;5279;42.048;24.638;2022-10-16T03:46:55;98277.25;;;8.91;100.00
10464;BME280;5279;42.048;24.638;2022-10-16T03:49:22;98271.13;;;8.91;100.00
10464;BME280;5279;42.048;24.638;2022-10-16T03:51:48;98269.81;;;8.85;100.00
10464;BME280;5279;42.048;24.638;2022-10-16T03:54:17;98271.97;;;8.80;100.00
10464;BME280;5279;42.048;24.638;2022-10-16T03:56:43;98274.38;;;8.83;100.00
10464;BME280;5279;42.048;24.638;2022-10-16T03:59:10;98281.69;;;8.91;100.00
10464;BME280;5279;42.048;24.638;2022-10-16T04:01:37;98280.03;;;8.90;100.00
10464;BME280;5279;42.048;24.638;2022-10-16T04:04:04;98266.31;;;8.85;100.00
10464;BME280;5279;42.048;24.638;2022-10-16T04:06:31;98283.63;;;8.89;100.00
10464;BME280;5279;42.048;24.638;2022-10-16T04:08:58;98274.38;;;8.83;100.00
10464;BME280;5279;42.048;24.638;2022-10-16T04:11:26;98280.97;;;8.77;100.00
10464;BME280;5279;42.048;24.638;2022-10-16T04:13:53;98279.03;;;8.79;100.00
10464;BME280;5279;42.048;24.638;2022-10-16T04:16:20;98276.06;;;8.84;100.00
10464;BME280;5279;42.048;24.638;2022-10-16T04:18:46;98274.13;;;8.86;100.00
10464;BME280;5279;42.048;24.638;2022-10-16T04:21:13;98273.06;;;8.89;100.00
10464;BME280;5279;42.048;24.638;2022-10-16T04:23:40;98274.38;;;8.83;100.00
10464;BME280;5279;42.048;24.638;2022-10-16T04:26:08;98275.44;;;8.81;100.00
10464;BME280;5279;42.048;24.638;2022-10-16T04:28:37;98282.41;;;8.82;100.00
10464;BME280;5279;42.048;24.638;2022-10-16T04:31:04;98284.56;;;8.76;100.00
10464;BME280;5279;42.048;24.638;2022-10-16T04:33:31;98281.31;;;8.73;100.00
10464;BME280;5279;42.048;24.638;2022-10-16T04:35:59;98280.34;;;8.63;100.00
10464;BME280;5279;42.048;24.638;2022-10-16T04:38:26;98278.75;;;8.60;100.00
10464;BME280;5279;42.048;24.638;2022-10-16T04:41:02;98276.34;;;8.57;100.00
10464;BME280;5279;42.048;24.638;2022-10-16T04:43:29;98272.09;;;8.44;100.00
10464;BME280;5279;42.048;24.638;2022-10-16T04:45:57;98282.13;;;8.62;100.00
10464;BME280;5279;42.048;24.638;2022-10-16T04:48:24;98289.53;;;8.57;100.00
10464;BME280;5279;42.048;24.638;2022-10-16T04:50:51;98287.38;;;8.51;100.00
10464;BME280;5279;42.048;24.638;2022-10-16T04:53:18;98292.31;;;8.56;100.00
10464;BME280;5279;42.048;24.638;2022-10-16T04:55:45;98285.50;;;8.64;100.00
10464;BME280;5279;42.048;24.638;2022-10-16T04:58:12;98295.97;;;8.66;100.00
10464;BME280;5279;42.048;24.638;2022-10-16T05:00:39;98287.81;;;8.69;100.00
10464;BME280;5279;42.048;24.638;2022-10-16T05:03:07;98292.38;;;8.78;100.00
10464;BME280;5279;42.048;24.638;2022-10-16T05:05:34;98296.59;;;8.92;100.00
10464;BME280;5279;42.048;24.638;2022-10-16T05:08:01;98293.03;;;9.04;100.00
10464;BME280;5279;42.048;24.638;2022-10-16T05:10:28;98304.09;;;9.20;100.00
10464;BME280;5279;42.048;24.638;2022-10-16T05:12:55;98303.97;;;9.21;100.00
10464;BME280;5279;42.048;24.638;2022-10-16T05:15:22;98308.66;;;9.40;100.00
10464;BME280;5279;42.048;24.638;2022-10-16T05:17:52;98315.78;;;9.62;100.00
10464;BME280;5279;42.048;24.638;2022-10-16T05:20:20;98319.47;;;9.70;100.00
10464;BME280;5279;42.048;24.638;2022-10-16T05:22:47;98321.66;;;9.65;100.00
10464;BME280;5279;42.048;24.638;2022-10-16T05:25:14;98330.66;;;9.85;100.00
10464;BME280;5279;42.048;24.638;2022-10-16T05:27:42;98321.13;;;10.05;100.00
10464;BME280;5279;42.048;24.638;2022-10-16T05:30:09;98330.00;;;10.26;100.00
10464;BME280;5279;42.048;24.638;2022-10-16T05:32:36;98333.19;;;10.52;100.00
10464;BME280;5279;42.048;24.638;2022-10-16T05:35:04;98334.25;;;10.81;100.00
10464;BME280;5279;42.048;24.638;2022-10-16T05:37:32;98329.28;;;11.08;100.00
10464;BME280;5279;42.048;24.638;2022-10-16T05:39:59;98346.78;;;11.41;100.00
10464;BME280;5279;42.048;24.638;2022-10-16T05:42:29;98343.53;;;11.79;100.00
10464;BME280;5279;42.048;24.638;2022-10-16T05:44:58;98344.75;;;12.15;100.00
10464;BME280;5279;42.048;24.638;2022-10-16T05:47:25;98347.03;;;12.48;100.00
10464;BME280;5279;42.048;24.638;2022-10-16T05:49:51;98352.34;;;12.86;96.94
10464;BME280;5279;42.048;24.638;2022-10-16T05:52:18;98358.66;;;13.24;92.91
10464;BME280;5279;42.048;24.638;2022-10-16T05:54:47;98360.44;;;13.52;88.22
10464;BME280;5279;42.048;24.638;2022-10-16T05:57:14;98353.22;;;13.62;83.15
10464;BME280;5279;42.048;24.638;2022-10-16T05:59:41;98362.13;;;13.80;79.95
10464;BME280;5279;42.048;24.638;2022-10-16T06:02:11;98361.09;;;14.00;79.66
10464;BME280;5279;42.048;24.638;2022-10-16T06:04:39;98362.97;;;14.17;80.20
10464;BME280;5279;42.048;24.638;2022-10-16T06:07:06;98364.28;;;14.41;77.23
10464;BME280;5279;42.048;24.638;2022-10-16T06:09:33;98361.09;;;14.55;76.39
10464;BME280;5279;42.048;24.638;2022-10-16T06:12:04;98374.97;;;14.76;75.42
10464;BME280;5279;42.048;24.638;2022-10-16T06:14:32;98369.63;;;14.76;74.66
10464;BME280;5279;42.048;24.638;2022-10-16T06:16:59;98366.34;;;14.82;75.71
10464;BME280;5279;42.048;24.638;2022-10-16T06:19:26;98372.47;;;14.92;74.14
10464;BME280;5279;42.048;24.638;2022-10-16T06:21:53;98368.13;;;14.91;74.65
10464;BME280;5279;42.048;24.638;2022-10-16T06:24:20;98368.56;;;15.04;73.86
10464;BME280;5279;42.048;24.638;2022-10-16T06:26:47;98378.63;;;15.10;73.99
10464;BME280;5279;42.048;24.638;2022-10-16T06:29:16;98376.50;;;14.96;73.56
10464;BME280;5279;42.048;24.638;2022-10-16T06:31:43;98377.50;;;14.95;74.58
10464;BME280;5279;42.048;24.638;2022-10-16T06:34:10;98377.69;;;15.02;74.82
10464;BME280;5279;42.048;24.638;2022-10-16T06:36:37;98392.25;;;15.25;73.52
10464;BME280;5279;42.048;24.638;2022-10-16T06:39:05;98386.13;;;15.32;68.69
10464;BME280;5279;42.048;24.638;2022-10-16T06:41:33;98391.25;;;15.44;68.55
10464;BME280;5279;42.048;24.638;2022-10-16T06:44:00;98394.84;;;15.52;67.40
10464;BME280;5279;42.048;24.638;2022-10-16T06:46:28;98394.03;;;15.60;67.22
10464;BME280;5279;42.048;24.638;2022-10-16T06:48:55;98386.41;;;15.65;67.42
10464;BME280;5279;42.048;24.638;2022-10-16T06:51:23;98397.47;;;15.70;68.37
10464;BME280;5279;42.048;24.638;2022-10-16T06:54:08;98395.88;;;15.85;68.42
10464;BME280;5279;42.048;24.638;2022-10-16T06:56:35;98408.34;;;16.02;69.04
10464;BME280;5279;42.048;24.638;2022-10-16T06:59:03;98398.22;;;16.14;68.24
10464;BME280;5279;42.048;24.638;2022-10-16T07:01:32;98402.00;;;16.37;67.58
10464;BME280;5279;42.048;24.638;2022-10-16T07:04:00;98402.19;;;16.44;67.15
10464;BME280;5279;42.048;24.638;2022-10-16T07:06:31;98402.28;;;16.68;66.62
10464;BME280;5279;42.048;24.638;2022-10-16T07:09:07;98409.81;;;16.64;67.08
10464;BME280;5279;42.048;24.638;2022-10-16T07:11:34;98401.13;;;16.70;66.68
10464;BME280;5279;42.048;24.638;2022-10-16T07:14:02;98407.69;;;16.92;66.66
10464;BME280;5279;42.048;24.638;2022-10-16T07:16:32;98407.84;;;16.82;67.60
10464;BME280;5279;42.048;24.638;2022-10-16T07:19:03;98401.34;;;17.01;67.26
10464;BME280;5279;42.048;24.638;2022-10-16T07:21:32;98400.38;;;17.10;67.54
10464;BME280;5279;42.048;24.638;2022-10-16T07:24:01;98409.75;;;17.30;67.38
10464;BME280;5279;42.048;24.638;2022-10-16T07:26:29;98410.59;;;17.47;64.59
10464;BME280;5279;42.048;24.638;2022-10-16T07:28:57;98409.09;;;17.44;64.08
10464;BME280;5279;42.048;24.638;2022-10-16T07:31:24;98404.41;;;17.63;61.89
10464;BME280;5279;42.048;24.638;2022-10-16T07:33:53;98414.78;;;17.74;63.11
10464;BME280;5279;42.048;24.638;2022-10-16T07:36:24;98401.28;;;18.14;61.64
10464;BME280;5279;42.048;24.638;2022-10-16T07:38:51;98422.75;;;18.14;61.61
10464;BME280;5279;42.048;24.638;2022-10-16T07:41:19;98419.34;;;18.28;61.05
10464;BME280;5279;42.048;24.638;2022-10-16T07:43:47;98416.44;;;18.54;60.27
10464;BME280;5279;42.048;24.638;2022-10-16T07:46:15;98410.19;;;18.45;59.89
10464;BME280;5279;42.048;24.638;2022-10-16T07:48:42;98401.78;;;18.48;58.61
10464;BME280;5279;42.048;24.638;2022-10-16T07:51:14;98411.22;;;18.52;58.33
10464;BME280;5279;42.048;24.638;2022-10-16T07:53:41;98418.31;;;18.76;56.91
10464;BME280;5279;42.048;24.638;2022-10-16T07:56:08;98406.63;;;18.92;56.36
10464;BME280;5279;42.048;24.638;2022-10-16T07:58:36;98420.63;;;19.10;55.83
10464;BME280;5279;42.048;24.638;2022-10-16T08:01:05;98419.53;;;19.19;54.78
10464;BME280;5279;42.048;24.638;2022-10-16T08:03:32;98421.75;;;19.38;54.19
10464;BME280;5279;42.048;24.638;2022-10-16T08:05:59;98425.09;;;19.48;54.03
10464;BME280;5279;42.048;24.638;2022-10-16T08:08:28;98426.97;;;19.62;52.80
10464;BME280;5279;42.048;24.638;2022-10-16T08:10:55;98423.44;;;19.62;52.61
10464;BME280;5279;42.048;24.638;2022-10-16T08:13:22;98430.03;;;19.97;53.17
10464;BME280;5279;42.048;24.638;2022-10-16T08:15:49;98420.75;;;20.14;51.88
10464;BME280;5279;42.048;24.638;2022-10-16T08:18:16;98425.00;;;20.23;51.41
10464;BME280;5279;42.048;24.638;2022-10-16T08:20:43;98415.75;;;20.40;51.24
10464;BME280;5279;42.048;24.638;2022-10-16T08:23:11;98414.06;;;20.68;51.40
10464;BME280;5279;42.048;24.638;2022-10-16T08:25:40;98424.44;;;20.71;48.22
10464;BME280;5279;42.048;24.638;2022-10-16T08:28:10;98421.38;;;20.75;48.11
10464;BME280;5279;42.048;24.638;2022-10-16T08:30:37;98420.38;;;20.76;47.02
10464;BME280;5279;42.048;24.638;2022-10-16T08:33:04;98416.16;;;20.88;47.75
10464;BME280;5279;42.048;24.638;2022-10-16T08:35:31;98402.84;;;21.22;46.45
10464;BME280;5279;42.048;24.638;2022-10-16T08:37:58;98420.84;;;21.57;45.51
10464;BME280;5279;42.048;24.638;2022-10-16T08:40:26;98421.28;;;22.10;44.49
10464;BME280;5279;42.048;24.638;2022-10-16T08:43:17;98415.06;;;22.50;42.28
10464;BME280;5279;42.048;24.638;2022-10-16T08:46:10;98410.81;;;22.69;41.51
10464;BME280;5279;42.048;24.638;2022-10-16T08:48:45;98405.56;;;23.15;39.76
10464;BME280;5279;42.048;24.638;2022-10-16T08:51:19;98415.44;;;23.55;38.63
10464;BME280;5279;42.048;24.638;2022-10-16T08:53:54;98428.13;;;24.33;37.96
10464;BME280;5279;42.048;24.638;2022-10-16T08:56:22;98412.56;;;25.18;35.52
10464;BME280;5279;42.048;24.638;2022-10-16T08:58:53;98416.50;;;25.84;34.92
10464;BME280;5279;42.048;24.638;2022-10-16T09:01:22;98409.25;;;26.46;33.86
10464;BME280;5279;42.048;24.638;2022-10-16T09:04:07;98401.19;;;27.24;31.53
10464;BME280;5279;42.048;24.638;2022-10-16T09:06:45;98409.66;;;27.45;30.59
10464;BME280;5279;42.048;24.638;2022-10-16T09:09:40;98411.31;;;27.99;29.79
10464;BME280;5279;42.048;24.638;2022-10-16T09:12:15;98408.69;;;28.62;28.98
10464;BME280;5279;42.048;24.638;2022-10-16T09:14:57;98405.78;;;28.92;28.35
10464;BME280;5279;42.048;24.638;2022-10-16T09:17:36;98404.44;;;29.63;29.08
10464;BME280;5279;42.048;24.638;2022-10-16T09:20:18;98405.69;;;29.72;27.76
10464;BME280;5279;42.048;24.638;2022-10-16T09:22:46;98396.44;;;30.06;27.85
10464;BME280;5279;42.048;24.638;2022-10-16T09:25:25;98410.09;;;29.73;26.92
10464;BME280;5279;42.048;24.638;2022-10-16T09:27:53;98409.00;;;30.07;26.81
10464;BME280;5279;42.048;24.638;2022-10-16T09:30:29;98414.06;;;30.92;25.66
10464;BME280;5279;42.048;24.638;2022-10-16T09:32:58;98407.91;;;31.28;24.94
10464;BME280;5279;42.048;24.638;2022-10-16T09:35:31;98403.19;;;31.46;25.45
10464;BME280;5279;42.048;24.638;2022-10-16T09:38:03;98410.91;;;31.49;26.11
10464;BME280;5279;42.048;24.638;2022-10-16T09:40:31;98404.34;;;31.50;25.18
10464;BME280;5279;42.048;24.638;2022-10-16T09:43:03;98407.97;;;31.87;23.73
10464;BME280;5279;42.048;24.638;2022-10-16T09:45:34;98400.75;;;31.76;24.46
10464;BME280;5279;42.048;24.638;2022-10-16T09:48:10;98405.34;;;32.39;23.58
10464;BME280;5279;42.048;24.638;2022-10-16T09:50:37;98399.66;;;32.04;23.80
10464;BME280;5279;42.048;24.638;2022-10-16T09:53:07;98404.16;;;32.62;22.99
10464;BME280;5279;42.048;24.638;2022-10-16T09:55:35;98391.25;;;33.44;22.16
10464;BME280;5279;42.048;24.638;2022-10-16T09:58:02;98397.25;;;33.21;21.88
10464;BME280;5279;42.048;24.638;2022-10-16T10:00:29;98390.13;;;33.35;22.62
10464;BME280;5279;42.048;24.638;2022-10-16T10:02:58;98387.66;;;33.29;21.88
10464;BME280;5279;42.048;24.638;2022-10-16T10:05:27;98387.91;;;33.17;21.96
10464;BME280;5279;42.048;24.638;2022-10-16T10:07:57;98383.63;;;33.97;22.05
10464;BME280;5279;42.048;24.638;2022-10-16T10:10:27;98373.72;;;33.81;21.81
10464;BME280;5279;42.048;24.638;2022-10-16T10:12:55;98373.72;;;34.11;20.85
10464;BME280;5279;42.048;24.638;2022-10-16T10:15:23;98372.97;;;34.85;21.34
10464;BME280;5279;42.048;24.638;2022-10-16T10:17:53;98364.06;;;35.13;19.94
10464;BME280;5279;42.048;24.638;2022-10-16T10:20:27;98365.09;;;34.53;19.99
10464;BME280;5279;42.048;24.638;2022-10-16T10:22:57;98359.88;;;35.21;19.56
10464;BME280;5279;42.048;24.638;2022-10-16T10:25:38;98356.81;;;35.66;19.37
10464;BME280;5279;42.048;24.638;2022-10-16T10:28:24;98359.16;;;36.40;18.13
10464;BME280;5279;42.048;24.638;2022-10-16T10:30:59;98359.09;;;35.88;18.91
10464;BME280;5279;42.048;24.638;2022-10-16T10:33:36;98340.22;;;36.00;18.12
10464;BME280;5279;42.048;24.638;2022-10-16T10:36:25;98352.91;;;36.01;18.48
10464;BME280;5279;42.048;24.638;2022-10-16T10:38:57;98352.66;;;34.66;18.86
10464;BME280;5279;42.048;24.638;2022-10-16T10:44:56;98333.56;;;33.49;19.97
10464;BME280;5279;42.048;24.638;2022-10-16T10:47:39;98328.28;;;34.34;18.91
10464;BME280;5279;42.048;24.638;2022-10-16T10:50:18;98341.09;;;34.69;18.93
10464;BME280;5279;42.048;24.638;2022-10-16T10:52:58;98329.03;;;35.52;18.32
10464;BME280;5279;42.048;24.638;2022-10-16T10:55:33;98339.00;;;36.40;17.82
10464;BME280;5279;42.048;24.638;2022-10-16T10:58:27;98329.22;;;36.95;16.93
10464;BME280;5279;42.048;24.638;2022-10-16T11:01:01;98324.75;;;37.73;16.29
10464;BME280;5279;42.048;24.638;2022-10-16T11:03:45;98323.28;;;37.95;16.13
10464;BME280;5279;42.048;24.638;2022-10-16T11:06:21;98322.31;;;37.53;16.52
10464;BME280;5279;42.048;24.638;2022-10-16T11:08:55;98332.63;;;37.99;16.21
10464;BME280;5279;42.048;24.638;2022-10-16T11:11:31;98327.75;;;37.58;15.33
10464;BME280;5279;42.048;24.638;2022-10-16T11:14:04;98330.66;;;38.72;14.78
10464;BME280;5279;42.048;24.638;2022-10-16T11:16:36;98333.13;;;38.88;14.51
10464;BME280;5279;42.048;24.638;2022-10-16T11:19:11;98328.81;;;38.54;13.98
10464;BME280;5279;42.048;24.638;2022-10-16T11:21:51;98320.81;;;38.66;14.96
10464;BME280;5279;42.048;24.638;2022-10-16T11:24:26;98312.09;;;39.22;14.74
10464;BME280;5279;42.048;24.638;2022-10-16T11:27:04;98315.25;;;40.10;14.06
10464;BME280;5279;42.048;24.638;2022-10-16T11:29:35;98302.56;;;39.51;13.24
10464;BME280;5279;42.048;24.638;2022-10-16T11:32:19;98308.94;;;39.51;13.25
10464;BME280;5279;42.048;24.638;2022-10-16T11:34:50;98306.91;;;39.88;13.77
10464;BME280;5279;42.048;24.638;2022-10-16T11:37:20;98301.09;;;39.31;13.90
10464;BME280;5279;42.048;24.638;2022-10-16T11:39:56;98306.53;;;40.42;12.80
10464;BME280;5279;42.048;24.638;2022-10-16T11:42:32;98302.13;;;39.57;13.17
10464;BME280;5279;42.048;24.638;2022-10-16T11:45:12;98300.81;;;40.08;13.12
10464;BME280;5279;42.048;24.638;2022-10-16T11:47:53;98307.69;;;40.50;12.31
10464;BME280;5279;42.048;24.638;2022-10-16T11:50:25;98291.38;;;39.86;12.78
10464;BME280;5279;42.048;24.638;2022-10-16T11:52:57;98303.97;;;40.15;13.19
10464;BME280;5279;42.048;24.638;2022-10-16T11:55:32;98302.72;;;39.32;13.15
10464;BME280;5279;42.048;24.638;2022-10-16T11:58:04;98308.50;;;40.50;12.28
10464;BME280;5279;42.048;24.638;2022-10-16T12:00:38;98309.00;;;40.91;12.16
10464;BME280;5279;42.048;24.638;2022-10-16T12:03:12;98300.34;;;40.45;12.69
10464;BME280;5279;42.048;24.638;2022-10-16T12:05:55;98317.38;;;41.26;12.39
10464;BME280;5279;42.048;24.638;2022-10-16T12:08:24;98296.28;;;41.76;12.15
10464;BME280;5279;42.048;24.638;2022-10-16T12:11:09;98295.56;;;41.96;11.94
10464;BME280;5279;42.048;24.638;2022-10-16T12:13:41;98311.94;;;41.89;12.06
10464;BME280;5279;42.048;24.638;2022-10-16T12:16:23;98302.31;;;41.70;11.86
10464;BME280;5279;42.048;24.638;2022-10-16T12:19:03;98308.72;;;41.62;12.56
10464;BME280;5279;42.048;24.638;2022-10-16T12:21:36;98307.38;;;41.93;12.08
10464;BME280;5279;42.048;24.638;2022-10-16T12:24:04;98317.19;;;42.00;11.69
10464;BME280;5279;42.048;24.638;2022-10-16T12:26:34;98310.22;;;41.76;11.64
10464;BME280;5279;42.048;24.638;2022-10-16T12:29:14;98306.41;;;41.21;12.48
10464;BME280;5279;42.048;24.638;2022-10-16T12:31:48;98311.66;;;41.57;12.08
10464;BME280;5279;42.048;24.638;2022-10-16T12:34:22;98307.13;;;42.24;11.74
10464;BME280;5279;42.048;24.638;2022-10-16T12:36:53;98293.47;;;42.40;11.62
10464;BME280;5279;42.048;24.638;2022-10-16T12:39:22;98301.56;;;42.16;11.69
10464;BME280;5279;42.048;24.638;2022-10-16T12:42:03;98302.22;;;42.59;11.29
10464;BME280;5279;42.048;24.638;2022-10-16T12:44:34;98288.84;;;42.44;11.81
10464;BME280;5279;42.048;24.638;2022-10-16T12:47:02;98318.50;;;42.86;11.73
10464;BME280;5279;42.048;24.638;2022-10-16T12:49:31;98306.28;;;42.99;11.37
10464;BME280;5279;42.048;24.638;2022-10-16T12:51:59;98302.53;;;42.66;10.88
10464;BME280;5279;42.048;24.638;2022-10-16T12:54:28;98310.59;;;42.59;11.51
10464;BME280;5279;42.048;24.638;2022-10-16T12:57:08;98305.72;;;42.47;11.11
10464;BME280;5279;42.048;24.638;2022-10-16T12:59:44;98313.78;;;41.60;11.47
10464;BME280;5279;42.048;24.638;2022-10-16T13:02:53;98311.81;;;41.86;11.38
10464;BME280;5279;42.048;24.638;2022-10-16T13:05:53;98323.41;;;40.94;11.52
10464;BME280;5279;42.048;24.638;2022-10-16T13:08:46;98310.22;;;40.68;12.09
10464;BME280;5279;42.048;24.638;2022-10-16T13:11:25;98313.53;;;40.70;12.25
10464;BME280;5279;42.048;24.638;2022-10-16T13:14:05;98317.03;;;40.93;11.81
10464;BME280;5279;42.048;24.638;2022-10-16T13:16:47;98304.19;;;40.27;11.59
10464;BME280;5279;42.048;24.638;2022-10-16T13:19:23;98310.59;;;40.36;11.95
10464;BME280;5279;42.048;24.638;2022-10-16T13:22:00;98319.81;;;40.14;12.36
10464;BME280;5279;42.048;24.638;2022-10-16T13:24:46;98306.97;;;40.27;11.94